TAF LFRB
LFRB 090500Z 0906/1012 27010KT 9999 BKN030 PROB40 TEMPO 0906/0910 4000 SHRA BKN015TCU BECMG 0909/0911 17010KT 5000 RA BKN010 TEMPO 0911/0917 3000 RA BKN005 PROB40 TEMPO 0911/0916 1500 RADZ BKN002 BECMG 0915/0918 28020G35KT 9999 NSW BKN020 TEMPO 0918/1009 28025G40KT TEMPO 0918/1012 5000 SHRA BKN025TCU=
METAR LFRB
LFRB 090700Z AUTO 19004KT 5000 -DZ BR FEW015 BKN020 BKN027 06/06 Q1007 TEMPO SHRA BKN015TCU BECMG 27010KT=
LFRB 090630Z AUTO 20006KT 9999 FEW020 BKN036 BKN045 06/05 Q1008 TEMPO 4000 SHRA BKN015TCU BECMG 27010KT=
LFRB 090600Z AUTO 20005KT 9999 FEW019 BKN029 OVC037 05/05 Q1008 TEMPO 4000 SHRA BKN015TCU=
LFRB 090530Z AUTO 22005KT 9999 -RA FEW025 BKN032 BKN038 05/05 Q1008 TEMPO 4000 SHRA BKN015TCU=
LFRB 090500Z AUTO 23003KT 9999 SCT031 BKN040 BKN048 06/05 Q1008 TEMPO 4000 SHRA BKN015TCU=
WC LFRB
WS LFRB
WV LFRB